Time;durP1;ratioP1;P1;durP2;ratioP2;P2;SDS_P1;SDS_P2;PMS_P1;PMS_P2;Temp;Humidity;BMP_temperature;BMP_pressure;BME280_temperature;BME280_humidity;BME280_pressure;Samples;Min_cycle;Max_cycle;Signal;HPM_P1;HPM_P2
2022/12/29 00:01:28;;;;;;;25.23;3.05;;;9.90;99.90;;;;;;4985320;28;20034;-45
2022/12/29 00:03:53;;;;;;;21.00;3.92;;;9.90;99.90;;;;;;4989000;28;20027;-44
2022/12/29 00:06:19;;;;;;;29.63;3.95;;;9.90;99.90;;;;;;4990768;28;20026;-46
2022/12/29 00:08:44;;;;;;;31.33;4.10;;;10.00;99.90;;;;;;4990962;28;20422;-44
2022/12/29 00:11:18;;;;;;;26.00;3.80;;;10.00;99.90;;;;;;4991104;28;20034;-50
2022/12/29 00:16:30;;;;;;;32.65;4.60;;;10.10;99.90;;;;;;4986056;28;20098;-46
2022/12/29 00:18:55;;;;;;;32.45;4.00;;;10.10;99.90;;;;;;4987870;28;20019;-46
2022/12/29 00:35:36;;;;;;;25.95;3.63;;;10.10;99.90;;;;;;4991130;28;20444;-43
2022/12/29 00:46:18;;;;;;;30.35;3.70;;;9.80;99.90;;;;;;4991414;28;20125;-45
2022/12/29 00:51:27;;;;;;;31.55;3.58;;;9.80;99.90;;;;;;4990993;28;20040;-45
2022/12/29 00:53:53;;;;;;;25.45;2.83;;;9.80;99.90;;;;;;4990659;28;20034;-51
2022/12/29 00:56:19;;;;;;;24.30;3.85;;;9.80;99.90;;;;;;4991112;28;20026;-45
2022/12/29 00:58:44;;;;;;;24.73;3.90;;;9.80;99.90;;;;;;4990963;28;20110;-49
2022/12/29 01:01:10;;;;;;;26.88;3.13;;;9.90;99.90;;;;;;4990976;28;20401;-47
2022/12/29 01:03:38;;;;;;;28.00;3.05;;;9.90;99.90;;;;;;4990988;28;20444;-51
2022/12/29 01:06:09;;;;;;;14.98;2.08;;;9.90;99.90;;;;;;4990838;28;20035;-48
2022/12/29 01:08:35;;;;;;;16.75;2.00;;;9.80;99.90;;;;;;4990906;28;20081;-48
2022/12/29 01:11:03;;;;;;;16.17;2.35;;;9.60;99.90;;;;;;4994435;28;20092;-45
2022/12/29 01:13:29;;;;;;;23.33;2.95;;;9.50;99.90;;;;;;4994451;28;20041;-46
2022/12/29 01:15:55;;;;;;;28.17;3.42;;;9.40;99.90;;;;;;4994513;28;20026;-47
2022/12/29 01:18:21;;;;;;;32.67;4.47;;;9.40;99.90;;;;;;4994514;28;20173;-54
2022/12/29 01:20:47;;;;;;;26.30;3.45;;;9.50;99.90;;;;;;5002565;28;20410;-49
2022/12/29 01:23:13;;;;;;;32.13;4.05;;;9.50;99.90;;;;;;5013553;28;20123;-46
2022/12/29 01:25:38;;;;;;;31.58;4.68;;;9.50;99.90;;;;;;5013739;28;20160;-49
2022/12/29 01:28:04;;;;;;;27.05;4.50;;;9.50;99.90;;;;;;5013855;28;20041;-48
2022/12/29 01:30:30;;;;;;;33.22;4.45;;;9.60;99.90;;;;;;5013616;28;20381;-47
2022/12/29 01:32:56;;;;;;;36.15;4.60;;;9.60;99.90;;;;;;5013690;28;20030;-48
2022/12/29 01:35:21;;;;;;;34.47;3.78;;;9.70;99.90;;;;;;5013499;28;20036;-50
2022/12/29 01:37:47;;;;;;;24.70;3.78;;;9.70;99.90;;;;;;5013671;28;20022;-45
2022/12/29 01:40:13;;;;;;;28.95;4.35;;;9.70;99.90;;;;;;5013660;28;20056;-47
2022/12/29 01:42:38;;;;;;;24.80;3.58;;;9.70;99.90;;;;;;5013482;28;20362;-45
2022/12/29 01:45:12;;;;;;;27.10;3.17;;;9.70;99.90;;;;;;5013733;28;20037;-45
2022/12/29 01:47:43;;;;;;;26.27;3.08;;;9.70;99.90;;;;;;5013699;28;20022;-50
2022/12/29 01:50:24;;;;;;;26.58;3.15;;;9.70;99.90;;;;;;5013753;28;20022;-45
2022/12/29 01:53:05;;;;;;;23.73;3.55;;;9.80;99.90;;;;;;5013482;28;20046;-52
2022/12/29 01:55:34;;;;;;;24.25;4.32;;;9.70;99.90;;;;;;5013414;28;20551;-51
2022/12/29 01:58:03;;;;;;;25.15;4.40;;;9.70;99.90;;;;;;5013553;28;20033;-49
2022/12/29 02:00:29;;;;;;;23.73;4.32;;;9.80;99.90;;;;;;5013264;28;20040;-48
2022/12/29 02:02:55;;;;;;;21.63;2.95;;;9.70;99.90;;;;;;5013134;28;20117;-46
2022/12/29 02:06:04;;;;;;;29.20;3.70;;;9.70;99.90;;;;;;5013235;28;20416;-45
2022/12/29 02:08:30;;;;;;;30.15;5.15;;;9.70;99.90;;;;;;4933219;29;20036;-46
2022/12/29 02:10:58;;;;;;;26.63;3.95;;;9.70;99.90;;;;;;4933233;29;20036;-47
2022/12/29 02:13:25;;;;;;;27.45;4.47;;;9.70;99.90;;;;;;4974621;28;20045;-45
2022/12/29 02:16:23;;;;;;;30.13;3.92;;;9.70;99.90;;;;;;5012964;28;20057;-48
2022/12/29 02:19:08;;;;;;;25.53;3.60;;;9.70;99.90;;;;;;4994080;28;20395;-49
2022/12/29 02:21:45;;;;;;;30.50;4.85;;;9.60;99.90;;;;;;5011309;28;20432;-54
2022/12/29 02:24:36;;;;;;;33.42;5.93;;;9.60;99.90;;;;;;5012305;28;20050;-46
2022/12/29 02:27:19;;;;;;;31.83;4.05;;;9.50;99.90;;;;;;5012878;28;20026;-55
2022/12/29 02:30:03;;;;;;;36.20;4.72;;;9.50;99.90;;;;;;5012789;28;20022;-51
2022/12/29 02:32:49;;;;;;;32.05;4.70;;;9.50;99.90;;;;;;5012471;28;20088;-48
2022/12/29 02:35:15;;;;;;;31.45;4.07;;;9.60;99.90;;;;;;5012767;28;20025;-46
2022/12/29 02:38:12;;;;;;;23.00;3.40;;;9.60;99.90;;;;;;5012520;28;20037;-45
2022/12/29 02:40:56;;;;;;;20.83;3.65;;;9.70;99.90;;;;;;5012397;28;20084;-45
2022/12/29 02:43:39;;;;;;;28.52;3.67;;;9.70;99.90;;;;;;5012783;28;20112;-45
2022/12/29 02:46:15;;;;;;;26.80;4.15;;;9.60;99.90;;;;;;4986444;28;20060;-45
2022/12/29 02:49:14;;;;;;;21.15;3.53;;;9.60;99.90;;;;;;5012249;28;20116;-45
2022/12/29 02:51:55;;;;;;;28.58;4.78;;;9.50;99.90;;;;;;5007068;28;20065;-46
2022/12/29 02:57:14;;;;;;;20.27;3.42;;;9.50;99.90;;;;;;5012568;28;20084;-46
2022/12/29 02:59:42;;;;;;;18.88;3.20;;;9.40;99.90;;;;;;5012026;28;20022;-46
2022/12/29 03:02:35;;;;;;;17.75;3.15;;;9.40;99.90;;;;;;5012214;28;20030;-50
2022/12/29 03:05:18;;;;;;;21.80;2.88;;;9.40;99.90;;;;;;4989715;28;20037;-49
2022/12/29 03:08:02;;;;;;;24.35;2.60;;;9.40;99.90;;;;;;5012022;28;20010;-47
2022/12/29 03:10:46;;;;;;;23.38;3.17;;;9.40;99.90;;;;;;5007949;28;20535;-46
2022/12/29 03:16:14;;;;;;;21.10;3.88;;;9.50;99.90;;;;;;4991932;28;20029;-49
2022/12/29 03:18:48;;;;;;;19.08;3.10;;;9.60;99.90;;;;;;4992059;28;20057;-47
2022/12/29 03:22:26;;;;;;;35.33;4.75;;;9.70;99.90;;;;;;4992143;28;20034;-50
2022/12/29 03:24:08;;;;;;;30.42;4.45;;;9.70;99.90;;;;;;4991585;28;20054;-50
2022/12/29 03:26:35;;;;;;;26.88;4.40;;;9.70;99.90;;;;;;4992011;28;20110;-45
2022/12/29 03:29:01;;;;;;;34.30;4.28;;;9.60;99.90;;;;;;4991866;28;20389;-46
2022/12/29 03:31:28;;;;;;;32.58;3.95;;;9.70;99.90;;;;;;4991496;28;20447;-50
2022/12/29 03:33:56;;;;;;;23.20;4.68;;;9.60;99.90;;;;;;4991899;28;20524;-46
2022/12/29 03:36:32;;;;;;;31.55;3.90;;;9.70;99.90;;;;;;4991769;28;20065;-53
2022/12/29 03:39:14;;;;;;;33.78;4.25;;;9.70;99.90;;;;;;4991705;28;20041;-48
2022/12/29 03:41:44;;;;;;;33.60;4.65;;;9.80;99.90;;;;;;4991754;28;20029;-49
2022/12/29 03:44:11;;;;;;;36.05;4.00;;;9.90;99.90;;;;;;4991784;28;20481;-50
2022/12/29 03:46:36;;;;;;;31.75;4.43;;;9.90;99.90;;;;;;4991651;28;20066;-49
2022/12/29 03:49:02;;;;;;;34.58;4.53;;;9.90;99.90;;;;;;4991703;28;20030;-45
2022/12/29 03:51:27;;;;;;;28.75;5.35;;;9.90;99.90;;;;;;4991546;28;20417;-46
2022/12/29 03:53:53;;;;;;;39.70;5.15;;;10.00;99.90;;;;;;4991155;28;20428;-45
2022/12/29 03:56:19;;;;;;;29.77;3.97;;;10.00;99.90;;;;;;4991593;28;20029;-47
2022/12/29 03:58:44;;;;;;;34.55;5.47;;;10.10;99.90;;;;;;4991486;28;20374;-49
2022/12/29 04:01:10;;;;;;;34.67;4.47;;;10.20;99.90;;;;;;4991543;28;20022;-47
2022/12/29 04:03:35;;;;;;;26.60;3.40;;;10.20;99.90;;;;;;4991392;28;20026;-51
2022/12/29 04:06:01;;;;;;;30.05;5.55;;;10.20;99.90;;;;;;4991590;28;20031;-49
2022/12/29 04:08:27;;;;;;;22.80;4.30;;;10.20;99.90;;;;;;4991214;28;20022;-49
2022/12/29 04:10:52;;;;;;;33.95;5.47;;;10.20;99.90;;;;;;4991344;28;20038;-53
2022/12/29 04:13:18;;;;;;;31.80;5.05;;;10.20;99.90;;;;;;4991402;28;20093;-45
2022/12/29 04:15:45;;;;;;;29.55;4.18;;;10.20;99.90;;;;;;4991372;28;20042;-55
2022/12/29 04:18:11;;;;;;;22.80;4.18;;;10.30;99.90;;;;;;4991405;28;20026;-47
2022/12/29 04:23:20;;;;;;;20.05;3.40;;;10.30;99.90;;;;;;4991115;28;20081;-45
2022/12/29 04:25:49;;;;;;;23.27;4.70;;;10.30;99.90;;;;;;4991043;28;20038;-49
2022/12/29 04:28:16;;;;;;;26.60;4.60;;;10.30;99.90;;;;;;4991506;28;20031;-51
2022/12/29 04:30:43;;;;;;;18.48;3.40;;;10.30;99.90;;;;;;4991131;28;20373;-48
2022/12/29 04:33:09;;;;;;;27.88;3.85;;;10.30;99.90;;;;;;4991025;28;20046;-50
2022/12/29 04:35:34;;;;;;;24.70;3.80;;;10.30;99.90;;;;;;4991190;28;20045;-45
2022/12/29 04:38:00;;;;;;;23.08;3.08;;;10.20;99.90;;;;;;4990895;28;20037;-45
2022/12/29 04:40:25;;;;;;;26.58;3.78;;;10.20;99.90;;;;;;4991112;28;20381;-45
2022/12/29 04:42:51;;;;;;;25.92;3.28;;;10.20;99.90;;;;;;4991127;28;20026;-51
2022/12/29 04:45:17;;;;;;;28.27;4.00;;;10.20;99.90;;;;;;4994171;28;20035;-49
2022/12/29 04:47:42;;;;;;;28.70;3.83;;;10.20;99.90;;;;;;4995217;28;20508;-45
2022/12/29 04:50:08;;;;;;;31.52;4.95;;;10.00;99.90;;;;;;4994931;28;20041;-46
2022/12/29 04:52:34;;;;;;;31.60;3.88;;;9.70;99.90;;;;;;4977204;28;20037;-45
2022/12/29 04:55:00;;;;;;;34.80;4.20;;;9.50;99.90;;;;;;4994553;28;20018;-51
2022/12/29 04:57:26;;;;;;;29.80;3.88;;;9.40;99.90;;;;;;4994819;28;20034;-46
2022/12/29 04:59:51;;;;;;;22.27;3.33;;;9.30;99.90;;;;;;4994549;28;20033;-46
2022/12/29 05:02:18;;;;;;;28.83;4.35;;;9.30;99.90;;;;;;4994605;28;20165;-46
2022/12/29 05:04:43;;;;;;;25.55;3.50;;;9.20;99.90;;;;;;4994525;28;20113;-50
2022/12/29 05:07:09;;;;;;;26.05;4.00;;;9.20;99.90;;;;;;4994416;28;20146;-46
2022/12/29 05:09:34;;;;;;;33.35;4.90;;;9.20;99.90;;;;;;4994410;28;20030;-46
2022/12/29 05:12:00;;;;;;;36.42;6.05;;;9.30;99.90;;;;;;4994346;28;20026;-46
2022/12/29 05:14:26;;;;;;;41.58;4.82;;;9.40;99.90;;;;;;4994539;28;20115;-46
2022/12/29 05:16:51;;;;;;;29.60;4.07;;;9.40;99.90;;;;;;4994330;28;20038;-48
2022/12/29 05:19:17;;;;;;;40.13;5.45;;;9.50;99.90;;;;;;4994218;28;20023;-50
2022/12/29 05:21:43;;;;;;;37.92;4.95;;;9.50;99.90;;;;;;4994619;28;20015;-46
2022/12/29 05:24:09;;;;;;;28.80;4.75;;;9.50;99.90;;;;;;4993834;28;20050;-47
2022/12/29 05:26:35;;;;;;;32.55;4.72;;;9.50;99.90;;;;;;4994487;28;20046;-50
2022/12/29 05:29:00;;;;;;;29.95;4.72;;;9.50;99.90;;;;;;4994363;28;20054;-45
2022/12/29 05:31:26;;;;;;;32.53;5.10;;;9.50;99.90;;;;;;4994268;28;20431;-49
2022/12/29 05:33:52;;;;;;;38.25;4.25;;;9.50;99.90;;;;;;4994115;28;20092;-47
2022/12/29 05:36:18;;;;;;;33.05;5.22;;;9.60;99.90;;;;;;4994234;28;20430;-50
2022/12/29 05:38:44;;;;;;;36.75;4.88;;;9.60;99.90;;;;;;4993965;28;20022;-46
2022/12/29 05:41:10;;;;;;;36.10;4.53;;;9.60;99.90;;;;;;4994002;28;20022;-46
2022/12/29 05:43:35;;;;;;;28.48;4.00;;;9.60;99.90;;;;;;4994113;28;20034;-46
2022/12/29 05:46:02;;;;;;;27.73;4.13;;;9.60;99.90;;;;;;4994214;28;20746;-48
2022/12/29 05:48:28;;;;;;;34.33;4.55;;;9.60;99.90;;;;;;4993828;28;20022;-47
2022/12/29 05:50:53;;;;;;;28.83;3.40;;;9.60;99.90;;;;;;4994406;28;20030;-49
2022/12/29 05:53:19;;;;;;;26.70;4.28;;;9.60;99.90;;;;;;4993621;28;20482;-46
2022/12/29 05:55:47;;;;;;;27.05;4.07;;;9.60;99.90;;;;;;4993602;28;20034;-51
2022/12/29 05:58:13;;;;;;;29.58;4.80;;;9.70;99.90;;;;;;4993797;28;20218;-48
2022/12/29 06:00:38;;;;;;;31.13;4.10;;;9.70;99.90;;;;;;4993643;28;20018;-46
2022/12/29 06:03:04;;;;;;;34.83;5.43;;;9.70;99.90;;;;;;4993556;28;20038;-49
2022/12/29 06:05:30;;;;;;;25.52;4.40;;;9.70;99.90;;;;;;4993645;28;20046;-46
2022/12/29 06:07:55;;;;;;;28.42;5.07;;;9.70;99.90;;;;;;4993398;28;20054;-53
2022/12/29 06:10:21;;;;;;;29.08;3.88;;;9.80;99.90;;;;;;4993710;28;20081;-49
2022/12/29 06:12:47;;;;;;;28.67;3.85;;;9.80;99.90;;;;;;4975905;28;20035;-50
2022/12/29 06:15:13;;;;;;;19.90;4.20;;;9.80;99.90;;;;;;4993534;28;20023;-47
2022/12/29 06:17:39;;;;;;;25.60;4.13;;;9.70;99.90;;;;;;4993174;28;20550;-45
2022/12/29 06:20:05;;;;;;;28.15;3.58;;;9.70;99.90;;;;;;4993157;28;20109;-49
2022/12/29 06:22:31;;;;;;;17.80;2.92;;;9.60;99.90;;;;;;4993088;28;20126;-49
2022/12/29 06:24:56;;;;;;;18.20;3.00;;;9.70;99.90;;;;;;4988718;28;20127;-47
2022/12/29 06:27:22;;;;;;;21.67;3.10;;;9.70;99.90;;;;;;4980514;28;20022;-48
2022/12/29 06:29:49;;;;;;;24.45;3.38;;;9.70;99.90;;;;;;4992866;28;20026;-47
2022/12/29 06:32:15;;;;;;;20.02;3.72;;;9.60;99.90;;;;;;4983276;28;20035;-46
2022/12/29 06:34:41;;;;;;;27.38;3.78;;;9.60;99.90;;;;;;4991269;28;20468;-48
2022/12/29 06:37:07;;;;;;;22.15;2.45;;;9.50;99.90;;;;;;4993190;28;20028;-49
2022/12/29 06:39:32;;;;;;;19.75;2.42;;;9.50;99.90;;;;;;4992625;28;20057;-48
2022/12/29 06:41:58;;;;;;;22.10;2.97;;;9.50;99.90;;;;;;4975507;28;20088;-47
2022/12/29 06:44:24;;;;;;;16.55;2.50;;;9.40;99.90;;;;;;4992683;28;20034;-48
2022/12/29 06:46:50;;;;;;;19.45;2.28;;;9.40;99.90;;;;;;4992817;28;20031;-46
2022/12/29 06:49:16;;;;;;;15.35;2.00;;;9.40;99.90;;;;;;4993022;28;20196;-46
2022/12/29 06:51:42;;;;;;;18.10;2.78;;;9.40;99.90;;;;;;4992415;28;20109;-46
2022/12/29 06:54:08;;;;;;;11.15;2.22;;;9.40;99.90;;;;;;4992769;28;20030;-46
2022/12/29 06:56:33;;;;;;;15.27;2.20;;;9.30;99.90;;;;;;4992350;28;20023;-46
2022/12/29 06:59:00;;;;;;;15.02;2.35;;;9.30;99.90;;;;;;4992673;28;20117;-48
2022/12/29 07:01:26;;;;;;;12.70;1.85;;;9.30;99.90;;;;;;4992291;28;20014;-46
2022/12/29 07:03:52;;;;;;;10.75;1.88;;;9.30;99.90;;;;;;4992483;28;20030;-46
2022/12/29 07:06:17;;;;;;;9.63;1.65;;;9.20;99.90;;;;;;4991953;28;20488;-47
2022/12/29 07:08:43;;;;;;;14.88;1.52;;;9.20;99.90;;;;;;4991918;28;20034;-46
2022/12/29 07:11:09;;;;;;;8.88;1.45;;;9.20;99.90;;;;;;4992500;28;20038;-46
2022/12/29 07:13:35;;;;;;;13.43;1.70;;;9.10;99.90;;;;;;4992144;28;20398;-51
2022/12/29 07:16:06;;;;;;;13.85;1.67;;;9.10;99.90;;;;;;4992164;28;20022;-46
2022/12/29 07:18:31;;;;;;;11.35;1.50;;;9.00;99.90;;;;;;4974719;28;20037;-47
2022/12/29 07:20:57;;;;;;;8.70;1.80;;;9.00;99.90;;;;;;4992084;28;20030;-48
2022/12/29 07:23:23;;;;;;;12.10;1.52;;;9.00;99.90;;;;;;4992233;28;20033;-46
2022/12/29 07:25:49;;;;;;;7.10;2.08;;;9.00;99.90;;;;;;4991814;28;20050;-45
2022/12/29 07:28:14;;;;;;;8.90;1.45;;;8.90;99.90;;;;;;4992206;28;20018;-46
2022/12/29 07:30:40;;;;;;;8.55;1.67;;;8.90;99.90;;;;;;4991911;28;20425;-52
2022/12/29 07:33:05;;;;;;;6.97;1.27;;;8.80;99.90;;;;;;4991641;28;20062;-55
2022/12/29 07:35:32;;;;;;;5.65;1.33;;;8.80;99.90;;;;;;4992039;28;20105;-45
2022/12/29 07:37:58;;;;;;;7.18;0.88;;;8.70;99.90;;;;;;4991766;28;20081;-45
2022/12/29 07:40:24;;;;;;;7.60;1.25;;;8.70;99.90;;;;;;4991990;28;20425;-50
2022/12/29 07:42:50;;;;;;;4.78;0.80;;;8.60;99.90;;;;;;4991850;28;20073;-49
2022/12/29 07:45:16;;;;;;;5.25;1.25;;;8.50;99.90;;;;;;4991893;28;20034;-49
2022/12/29 07:47:41;;;;;;;5.72;1.60;;;8.40;99.90;;;;;;4992012;28;20417;-45
2022/12/29 07:50:07;;;;;;;7.45;1.83;;;8.40;99.90;;;;;;4991726;28;20390;-46
2022/12/29 07:52:33;;;;;;;9.23;1.50;;;8.40;99.90;;;;;;4991541;28;20129;-47
2022/12/29 07:54:58;;;;;;;7.35;1.90;;;8.30;99.90;;;;;;4991657;28;20018;-45
2022/12/29 07:57:24;;;;;;;11.45;2.22;;;8.30;99.90;;;;;;4991539;28;20105;-47
2022/12/29 07:59:49;;;;;;;12.30;1.85;;;8.20;99.90;;;;;;4991337;28;20042;-46
2022/12/29 08:02:15;;;;;;;8.57;1.50;;;8.20;99.90;;;;;;4991806;28;20140;-47
2022/12/29 08:04:41;;;;;;;9.95;1.50;;;8.10;99.90;;;;;;4991485;28;20466;-46
2022/12/29 08:07:06;;;;;;;10.13;1.75;;;8.10;99.90;;;;;;4991370;28;20041;-45
2022/12/29 08:09:32;;;;;;;14.18;2.08;;;8.10;99.90;;;;;;4991404;28;20108;-46
2022/12/29 08:11:57;;;;;;;6.38;1.90;;;8.10;99.90;;;;;;4991116;28;20126;-50
2022/12/29 08:14:23;;;;;;;10.77;1.83;;;8.20;99.90;;;;;;4991261;28;20034;-56
2022/12/29 08:16:49;;;;;;;9.48;1.60;;;8.20;99.90;;;;;;4990555;28;20195;-46
2022/12/29 08:19:14;;;;;;;8.40;1.25;;;8.20;99.90;;;;;;4989567;28;20410;-46
2022/12/29 08:21:40;;;;;;;12.38;1.25;;;8.20;99.90;;;;;;4989401;28;20393;-49
2022/12/29 08:24:07;;;;;;;7.25;1.15;;;8.20;99.90;;;;;;4988536;28;20192;-49
2022/12/29 08:26:33;;;;;;;11.85;1.58;;;8.30;99.90;;;;;;4984308;28;20098;-48
2022/12/29 08:28:59;;;;;;;7.68;1.67;;;8.40;99.90;;;;;;4988481;28;20113;-46
2022/12/29 08:31:24;;;;;;;7.35;1.60;;;8.40;99.90;;;;;;4984409;28;20267;-46
2022/12/29 08:33:50;;;;;;;7.82;1.55;;;8.40;99.90;;;;;;4991072;28;20046;-46
2022/12/29 08:36:16;;;;;;;13.07;2.33;;;8.40;99.90;;;;;;4982194;28;20019;-47
2022/12/29 08:38:42;;;;;;;8.98;1.50;;;8.40;99.90;;;;;;4980623;28;20109;-46
2022/12/29 08:41:07;;;;;;;11.63;1.52;;;8.40;99.90;;;;;;4975364;28;20093;-49
2022/12/29 08:43:33;;;;;;;20.10;3.22;;;8.30;99.90;;;;;;4977167;28;20034;-47
2022/12/29 08:45:59;;;;;;;12.52;1.52;;;8.30;99.90;;;;;;4977892;28;20117;-46
2022/12/29 08:48:26;;;;;;;8.13;1.58;;;8.30;99.90;;;;;;4979439;28;20050;-53
2022/12/29 08:50:52;;;;;;;4.65;1.52;;;8.50;99.90;;;;;;4979879;28;20050;-51
2022/12/29 08:53:18;;;;;;;12.23;1.92;;;8.70;99.90;;;;;;4981152;28;20524;-51
2022/12/29 08:55:53;;;;;;;10.68;1.92;;;9.00;99.90;;;;;;4977809;28;20394;-51
2022/12/29 08:58:19;;;;;;;13.20;2.17;;;9.50;99.90;;;;;;4978415;28;20110;-47
2022/12/29 09:00:45;;;;;;;13.52;3.05;;;9.90;99.90;;;;;;4973862;28;20123;-48
2022/12/29 09:03:10;;;;;;;11.48;1.75;;;9.70;99.90;;;;;;4973479;28;20444;-46
2022/12/29 09:05:36;;;;;;;18.67;2.25;;;9.40;99.90;;;;;;4978326;28;20446;-47
2022/12/29 09:08:02;;;;;;;12.75;2.08;;;9.20;99.90;;;;;;4975680;28;20039;-46
2022/12/29 09:10:27;;;;;;;20.38;3.08;;;9.20;99.90;;;;;;4983922;28;20034;-49
2022/12/29 09:12:53;;;;;;;14.15;2.05;;;9.10;99.90;;;;;;4988369;28;20137;-47
2022/12/29 09:15:19;;;;;;;18.48;1.90;;;9.20;99.90;;;;;;4990625;28;20037;-49
2022/12/29 09:17:45;;;;;;;16.73;2.20;;;9.30;99.90;;;;;;4990591;28;20030;-52
2022/12/29 09:20:16;;;;;;;18.83;2.30;;;9.40;99.90;;;;;;4990859;28;20027;-47
2022/12/29 09:22:42;;;;;;;16.60;2.03;;;9.60;99.90;;;;;;4981054;28;20030;-54
2022/12/29 09:25:08;;;;;;;17.70;3.42;;;9.80;99.90;;;;;;4982960;28;20055;-56
2022/12/29 09:27:34;;;;;;;13.98;1.90;;;10.00;99.90;;;;;;4973648;28;20031;-49
2022/12/29 09:30:00;;;;;;;15.15;2.40;;;10.20;99.90;;;;;;4990919;28;20030;-47
2022/12/29 09:32:26;;;;;;;9.38;1.90;;;10.10;99.90;;;;;;4992502;28;20043;-51
2022/12/29 09:34:52;;;;;;;17.27;2.95;;;10.10;99.90;;;;;;4992299;28;20019;-46
2022/12/29 09:37:17;;;;;;;13.82;1.88;;;10.10;99.90;;;;;;4992017;28;20627;-47
2022/12/29 09:39:43;;;;;;;16.00;2.13;;;10.20;99.90;;;;;;4991894;28;20030;-47
2022/12/29 09:42:16;;;;;;;20.50;2.53;;;10.20;99.90;;;;;;4992310;28;20034;-46
2022/12/29 09:44:44;;;;;;;13.55;1.77;;;10.20;99.90;;;;;;4991003;28;20493;-46
2022/12/29 09:47:14;;;;;;;11.55;2.42;;;10.30;99.90;;;;;;4990635;28;20551;-46
2022/12/29 09:49:51;;;;;;;13.98;2.53;;;10.20;99.90;;;;;;4991913;28;20023;-48
2022/12/29 09:52:25;;;;;;;16.08;2.20;;;10.30;99.90;;;;;;4991720;28;20026;-46
2022/12/29 09:55:02;;;;;;;15.20;2.03;;;10.10;99.90;;;;;;4991758;28;20034;-52
2022/12/29 09:57:38;;;;;;;12.75;2.00;;;10.00;99.90;;;;;;4991601;28;20085;-46
2022/12/29 10:00:19;;;;;;;12.23;1.80;;;9.90;99.90;;;;;;4992664;28;20034;-51
2022/12/29 10:03:09;;;;;;;13.55;1.90;;;9.90;99.90;;;;;;4993534;28;20026;-49
2022/12/29 10:05:49;;;;;;;11.80;1.63;;;10.00;99.90;;;;;;4993798;28;20042;-48
2022/12/29 10:08:44;;;;;;;7.68;1.40;;;10.20;99.90;;;;;;4984336;28;20498;-50
2022/12/29 10:11:29;;;;;;;8.25;1.02;;;10.30;99.90;;;;;;4989406;28;20042;-48
2022/12/29 10:14:27;;;;;;;9.15;1.40;;;10.40;99.90;;;;;;4978300;28;20564;-46
2022/12/29 10:17:19;;;;;;;5.38;1.08;;;10.30;99.90;;;;;;4954192;28;20035;-48
2022/12/29 10:20:08;;;;;;;11.07;2.00;;;10.50;99.90;;;;;;4987490;28;20042;-46
2022/12/29 10:22:45;;;;;;;10.30;2.28;;;10.40;99.90;;;;;;4980115;28;20023;-51
2022/12/29 10:25:24;;;;;;;8.20;0.90;;;10.50;99.90;;;;;;4982995;28;20046;-50
2022/12/29 10:27:51;;;;;;;9.10;1.60;;;10.60;99.90;;;;;;4982497;28;20026;-46
2022/12/29 10:30:18;;;;;;;9.43;1.40;;;10.80;99.90;;;;;;4992168;28;20030;-49
2022/12/29 10:32:51;;;;;;;5.95;1.25;;;11.10;99.90;;;;;;4992527;28;20062;-52
2022/12/29 10:35:29;;;;;;;7.80;1.38;;;11.20;99.90;;;;;;4988927;28;20033;-46
2022/12/29 10:37:55;;;;;;;8.80;1.40;;;11.10;99.90;;;;;;4992591;28;20046;-46
2022/12/29 10:40:38;;;;;;;7.68;1.50;;;11.10;99.90;;;;;;4987406;28;20019;-46
2022/12/29 10:43:24;;;;;;;9.30;1.30;;;11.10;99.90;;;;;;4989098;28;20038;-46
2022/12/29 10:45:51;;;;;;;8.40;1.85;;;12.00;99.90;;;;;;4989248;28;20030;-49
2022/12/29 10:48:31;;;;;;;7.35;1.00;;;13.30;99.90;;;;;;4993919;28;20084;-47
2022/12/29 10:50:59;;;;;;;7.68;1.67;;;13.60;99.90;;;;;;4993016;28;20022;-49
2022/12/29 10:53:32;;;;;;;6.60;1.27;;;13.00;99.90;;;;;;4986567;28;20054;-47
2022/12/29 10:56:00;;;;;;;5.88;1.23;;;12.50;99.90;;;;;;4990801;28;20486;-50
2022/12/29 10:58:27;;;;;;;7.22;1.35;;;12.10;99.90;;;;;;4992338;28;20481;-47
2022/12/29 11:00:54;;;;;;;7.63;0.95;;;12.20;99.90;;;;;;4992112;28;20037;-47
2022/12/29 11:03:35;;;;;;;4.07;1.00;;;12.60;99.90;;;;;;4993772;28;20105;-46
2022/12/29 11:06:04;;;;;;;9.65;1.40;;;13.50;99.90;;;;;;4990044;28;20038;-47
2022/12/29 11:08:39;;;;;;;5.03;1.05;;;14.20;99.90;;;;;;4998325;28;20482;-47
2022/12/29 11:11:06;;;;;;;3.90;0.95;;;14.60;99.90;;;;;;4989871;28;20480;-45
2022/12/29 11:13:34;;;;;;;5.93;1.13;;;13.40;99.90;;;;;;4997070;28;20057;-48
2022/12/29 11:16:02;;;;;;;8.63;1.30;;;12.20;99.90;;;;;;4994760;28;20105;-47
2022/12/29 11:18:36;;;;;;;10.35;2.33;;;11.30;99.90;;;;;;4991759;28;20046;-45
2022/12/29 11:21:04;;;;;;;8.00;1.25;;;10.80;99.90;;;;;;4986461;28;20109;-53
2022/12/29 11:23:35;;;;;;;5.05;1.25;;;10.50;99.90;;;;;;4987395;28;20105;-46
2022/12/29 11:26:20;;;;;;;8.75;1.10;;;10.40;99.90;;;;;;4983738;28;20042;-45
2022/12/29 11:29:05;;;;;;;6.57;1.40;;;10.40;99.90;;;;;;4994116;28;20034;-48
2022/12/29 11:31:40;;;;;;;7.28;1.02;;;10.30;99.90;;;;;;4996268;28;20029;-47
2022/12/29 11:34:07;;;;;;;8.10;1.30;;;10.30;99.90;;;;;;4998049;28;20120;-49
2022/12/29 11:36:34;;;;;;;7.78;1.08;;;10.40;99.90;;;;;;4997427;28;20025;-45
2022/12/29 11:39:00;;;;;;;7.80;1.10;;;10.50;99.90;;;;;;4991511;28;20511;-47
2022/12/29 11:41:29;;;;;;;10.45;1.85;;;10.80;99.90;;;;;;4990888;28;20770;-48
2022/12/29 11:44:00;;;;;;;9.93;1.88;;;11.40;99.90;;;;;;4991368;28;20015;-55
2022/12/29 11:46:33;;;;;;;7.95;1.25;;;11.70;99.90;;;;;;4991134;28;20018;-47
2022/12/29 11:49:00;;;;;;;5.80;1.30;;;11.60;99.90;;;;;;4983281;28;20022;-51
2022/12/29 11:51:45;;;;;;;13.70;1.95;;;11.60;99.90;;;;;;4988814;28;20034;-47
2022/12/29 11:54:21;;;;;;;7.75;1.30;;;11.70;99.90;;;;;;4985716;28;20045;-45
2022/12/29 11:56:48;;;;;;;8.32;1.33;;;11.40;99.90;;;;;;4990950;28;20030;-56
2022/12/29 11:59:34;;;;;;;8.48;1.45;;;11.00;99.90;;;;;;4990722;28;20032;-45
2022/12/29 12:02:03;;;;;;;9.77;1.70;;;10.80;99.90;;;;;;4982344;28;20057;-48
2022/12/29 12:04:36;;;;;;;9.18;1.38;;;10.60;99.90;;;;;;4984056;28;20027;-50
2022/12/29 12:07:07;;;;;;;7.22;1.95;;;10.50;99.90;;;;;;4975233;28;20474;-49
2022/12/29 12:09:46;;;;;;;8.57;1.85;;;10.70;99.90;;;;;;4989541;28;20057;-46
2022/12/29 12:12:29;;;;;;;7.20;1.45;;;11.30;99.90;;;;;;4990177;28;20634;-47
2022/12/29 12:14:59;;;;;;;7.43;1.45;;;11.50;99.90;;;;;;4979533;28;20420;-47
2022/12/29 12:17:42;;;;;;;8.63;1.35;;;12.00;99.90;;;;;;5010640;28;20032;-44
2022/12/29 12:20:28;;;;;;;11.13;1.80;;;12.40;99.90;;;;;;4977278;28;20047;-47
2022/12/29 12:23:08;;;;;;;13.15;2.08;;;12.50;99.90;;;;;;4990434;28;20387;-49
2022/12/29 12:25:49;;;;;;;10.07;1.60;;;12.60;99.90;;;;;;4972301;28;20506;-47
2022/12/29 12:28:33;;;;;;;19.05;1.92;;;12.30;99.90;;;;;;4988366;28;20034;-46
2022/12/29 12:31:02;;;;;;;17.00;2.08;;;11.60;99.90;;;;;;4985551;28;20057;-47
2022/12/29 12:33:42;;;;;;;10.10;2.10;;;11.00;99.90;;;;;;4991795;28;20173;-47
2022/12/29 12:36:38;;;;;;;10.88;2.20;;;10.60;99.90;;;;;;4994508;28;20114;-49
2022/12/29 12:39:38;;;;;;;10.93;1.45;;;10.30;99.90;;;;;;4987115;28;20038;-46
2022/12/29 12:42:13;;;;;;;11.85;2.28;;;10.20;99.90;;;;;;4998753;28;20084;-47
2022/12/29 12:44:55;;;;;;;11.85;1.60;;;10.20;99.90;;;;;;4995975;28;20110;-52
2022/12/29 12:47:31;;;;;;;9.48;3.42;;;10.40;99.90;;;;;;4996813;28;20382;-46
2022/12/29 12:50:34;;;;;;;10.88;2.03;;;11.20;99.90;;;;;;4993647;28;20027;-47
2022/12/29 12:53:12;;;;;;;10.82;2.03;;;11.80;99.90;;;;;;4990665;28;20034;-47
2022/12/29 12:55:43;;;;;;;16.20;3.47;;;11.70;99.90;;;;;;4987276;28;20029;-49
2022/12/29 12:58:24;;;;;;;9.77;1.40;;;11.30;99.90;;;;;;4993491;28;20019;-46
2022/12/29 13:01:14;;;;;;;7.70;1.60;;;10.90;99.90;;;;;;4989147;28;20522;-57
2022/12/29 13:04:00;;;;;;;;;;;10.80;99.90;;;;;;4986562;28;20040;-57
2022/12/29 13:06:31;;;;;;;12.50;1.90;;;10.90;99.90;;;;;;4992584;28;19992;-57
2022/12/29 13:09:05;;;;;;;10.00;1.50;;;11.00;99.90;;;;;;5001439;28;20026;-57
2022/12/29 13:11:54;;;;;;;8.45;1.35;;;11.30;99.90;;;;;;4997535;28;20029;-58
2022/12/29 13:14:39;;;;;;;8.95;1.55;;;12.30;99.90;;;;;;4986196;28;20121;-57
2022/12/29 13:17:30;;;;;;;9.70;1.58;;;13.80;98.00;;;;;;4994485;28;20050;-58
2022/12/29 13:19:55;;;;;;;11.93;1.50;;;14.10;96.70;;;;;;4985013;28;20101;-49
2022/12/29 13:22:41;;;;;;;12.95;2.03;;;14.00;95.80;;;;;;4994378;28;20022;-47
2022/12/29 13:25:27;;;;;;;9.10;2.00;;;13.60;96.50;;;;;;5000882;28;20122;-47
2022/12/29 13:28:25;;;;;;;7.38;1.80;;;13.80;96.70;;;;;;4996293;28;20034;-45
2022/12/29 13:31:28;;;;;;;8.50;2.13;;;13.30;96.50;;;;;;4994150;28;20022;-46
2022/12/29 13:34:52;;;;;;;17.45;2.47;;;13.40;97.80;;;;;;4993762;28;20054;-48
2022/12/29 13:37:23;;;;;;;12.68;2.10;;;14.10;96.90;;;;;;4897031;29;20092;-49
2022/12/29 13:39:54;;;;;;;13.43;2.53;;;14.20;96.10;;;;;;4986973;28;20048;-47
2022/12/29 13:42:22;;;;;;;19.17;3.63;;;13.40;96.80;;;;;;5003221;28;20014;-46